Terminal Aerodrome Forecast
Issued by NWS Upton, NY

Home | Current Version | Previous Version | Text Only | Print | Product List | Glossary On
Versions: 1 2 3 4 5 6 7 8 9 10 11 12 13 14 15 16 17 18 19 20 21 22 23 24 25 26
000
FTUS41 KOKX 041129
TAFEWR
TAF
KEWR 041129Z 0412/0518 VRB03KT P6SM FEW100 SCT250
     FM041300 23007KT P6SM FEW100 SCT250
     FM041700 21012G18KT P6SM FEW080 SCT250
     FM042000 21015G22KT P6SM FEW080 SCT250
     FM050200 21011KT P6SM FEW070 SCT250
     FM050600 22008KT P6SM FEW070 SCT250
     FM050900 25006KT P6SM SCT070 SCT150 BKN250 PROB30 0515/0518
      -SHRA=

USA.gov is the U.S. government's official web portal to all federal, state and local government web resources and services.